sensor_id;sensor_type;location;lat;lon;timestamp;pressure;altitude;pressure_sealevel;temperature;humidity
41202;BME280;26936;50.524;8.684;2023-04-05T00:02:19;100117.50;;;0.74;86.45
41202;BME280;26936;50.524;8.684;2023-04-05T00:04:45;100117.94;;;0.76;86.31
41202;BME280;26936;50.524;8.684;2023-04-05T00:07:18;100123.66;;;0.64;86.40
41202;BME280;26936;50.524;8.684;2023-04-05T00:09:45;100122.50;;;0.65;86.52
41202;BME280;26936;50.524;8.684;2023-04-05T00:12:11;100116.09;;;0.61;86.73
41202;BME280;26936;50.524;8.684;2023-04-05T00:14:37;100122.44;;;0.61;87.55
41202;BME280;26936;50.524;8.684;2023-04-05T00:17:02;100123.19;;;0.58;88.79
41202;BME280;26936;50.524;8.684;2023-04-05T00:19:28;100132.59;;;0.54;88.39
41202;BME280;26936;50.524;8.684;2023-04-05T00:21:58;100122.66;;;0.53;88.42
41202;BME280;26936;50.524;8.684;2023-04-05T00:24:23;100121.00;;;0.48;88.23
41202;BME280;26936;50.524;8.684;2023-04-05T00:26:48;100126.63;;;0.52;87.22
41202;BME280;26936;50.524;8.684;2023-04-05T00:29:13;100121.00;;;0.48;87.60
41202;BME280;26936;50.524;8.684;2023-04-05T00:31:39;100127.00;;;0.50;87.10
41202;BME280;26936;50.524;8.684;2023-04-05T00:34:04;100112.69;;;0.48;86.37
41202;BME280;26936;50.524;8.684;2023-04-05T00:36:33;100118.03;;;0.38;87.77
41202;BME280;26936;50.524;8.684;2023-04-05T00:38:58;100115.31;;;0.41;88.81
41202;BME280;26936;50.524;8.684;2023-04-05T00:41:23;100115.41;;;0.45;88.77
41202;BME280;26936;50.524;8.684;2023-04-05T00:43:49;100109.66;;;0.34;89.35
41202;BME280;26936;50.524;8.684;2023-04-05T00:46:14;100108.06;;;0.33;89.66
41202;BME280;26936;50.524;8.684;2023-04-05T00:48:40;100105.28;;;0.33;89.21
41202;BME280;26936;50.524;8.684;2023-04-05T00:51:06;100115.44;;;0.26;89.71
41202;BME280;26936;50.524;8.684;2023-04-05T00:53:36;100113.03;;;0.24;92.45
41202;BME280;26936;50.524;8.684;2023-04-05T00:56:02;100112.59;;;0.22;90.65
41202;BME280;26936;50.524;8.684;2023-04-05T00:58:28;100099.03;;;0.17;90.08
41202;BME280;26936;50.524;8.684;2023-04-05T01:03:38;100100.16;;;0.13;90.40
41202;BME280;26936;50.524;8.684;2023-04-05T01:06:43;100102.09;;;0.12;92.35
41202;BME280;26936;50.524;8.684;2023-04-05T01:11:48;100094.31;;;-0.02;91.30
41202;BME280;26936;50.524;8.684;2023-04-05T01:14:13;100101.09;;;0.01;90.80
41202;BME280;26936;50.524;8.684;2023-04-05T01:16:38;100090.03;;;0.01;90.29
41202;BME280;26936;50.524;8.684;2023-04-05T01:19:04;100091.84;;;-0.07;90.89
41202;BME280;26936;50.524;8.684;2023-04-05T01:21:44;100089.00;;;-0.10;90.61
41202;BME280;26936;50.524;8.684;2023-04-05T01:24:58;100086.91;;;-0.17;90.90
41202;BME280;26936;50.524;8.684;2023-04-05T01:28:13;100080.41;;;-0.24;91.69
41202;BME280;26936;50.524;8.684;2023-04-05T01:30:36;100083.03;;;-0.31;91.40
41202;BME280;26936;50.524;8.684;2023-04-05T01:35:36;100076.41;;;-0.27;90.59
41202;BME280;26936;50.524;8.684;2023-04-05T01:38:04;100075.44;;;-0.34;90.33
41202;BME280;26936;50.524;8.684;2023-04-05T01:40:32;100078.94;;;-0.37;90.54
41202;BME280;26936;50.524;8.684;2023-04-05T01:43:00;100074.94;;;-0.40;91.57
41202;BME280;26936;50.524;8.684;2023-04-05T01:45:26;100064.97;;;-0.44;91.60
41202;BME280;26936;50.524;8.684;2023-04-05T01:47:51;100065.53;;;-0.54;92.21
41202;BME280;26936;50.524;8.684;2023-04-05T01:50:17;100061.69;;;-0.50;92.01
41202;BME280;26936;50.524;8.684;2023-04-05T01:52:42;100068.72;;;-0.52;92.11
41202;BME280;26936;50.524;8.684;2023-04-05T01:55:07;100069.53;;;-0.52;92.21
41202;BME280;26936;50.524;8.684;2023-04-05T01:57:32;100063.56;;;-0.54;91.71
41202;BME280;26936;50.524;8.684;2023-04-05T01:59:58;100062.34;;;-0.56;91.83
41202;BME280;26936;50.524;8.684;2023-04-05T02:02:23;100056.19;;;-0.65;91.83
41202;BME280;26936;50.524;8.684;2023-04-05T02:04:48;100062.81;;;-0.70;92.31
41202;BME280;26936;50.524;8.684;2023-04-05T02:07:13;100065.66;;;-0.66;92.26
41202;BME280;26936;50.524;8.684;2023-04-05T02:09:39;100063.25;;;-0.68;92.80
41202;BME280;26936;50.524;8.684;2023-04-05T02:12:05;100069.69;;;-0.64;92.55
41202;BME280;26936;50.524;8.684;2023-04-05T02:14:30;100060.50;;;-0.68;92.63
41202;BME280;26936;50.524;8.684;2023-04-05T02:16:55;100057.84;;;-0.80;92.84
41202;BME280;26936;50.524;8.684;2023-04-05T02:19:22;100064.00;;;-0.86;93.82
41202;BME280;26936;50.524;8.684;2023-04-05T02:21:48;100061.34;;;-0.83;93.90
41202;BME280;26936;50.524;8.684;2023-04-05T02:24:14;100066.41;;;-0.85;93.55
41202;BME280;26936;50.524;8.684;2023-04-05T02:26:39;100073.13;;;-0.86;93.86
41202;BME280;26936;50.524;8.684;2023-04-05T02:29:04;100069.50;;;-0.90;93.79
41202;BME280;26936;50.524;8.684;2023-04-05T02:31:30;100075.28;;;-0.95;93.80
41202;BME280;26936;50.524;8.684;2023-04-05T02:33:55;100065.09;;;-0.91;93.76
41202;BME280;26936;50.524;8.684;2023-04-05T02:36:22;100070.41;;;-1.01;94.26
41202;BME280;26936;50.524;8.684;2023-04-05T02:38:48;100075.94;;;-1.01;94.49
41202;BME280;26936;50.524;8.684;2023-04-05T02:41:13;100079.09;;;-0.99;94.76
41202;BME280;26936;50.524;8.684;2023-04-05T02:43:39;100073.44;;;-1.06;95.15
41202;BME280;26936;50.524;8.684;2023-04-05T02:46:04;100072.16;;;-1.09;95.91
41202;BME280;26936;50.524;8.684;2023-04-05T02:48:29;100073.69;;;-1.11;97.28
41202;BME280;26936;50.524;8.684;2023-04-05T02:50:55;100068.19;;;-1.11;96.92
41202;BME280;26936;50.524;8.684;2023-04-05T02:53:20;100066.03;;;-1.18;96.93
41202;BME280;26936;50.524;8.684;2023-04-05T02:55:53;100058.97;;;-1.15;96.44
41202;BME280;26936;50.524;8.684;2023-04-05T02:58:19;100059.53;;;-1.25;96.66
41202;BME280;26936;50.524;8.684;2023-04-05T03:00:45;100060.69;;;-1.26;97.02
41202;BME280;26936;50.524;8.684;2023-04-05T03:03:19;100056.34;;;-1.27;97.47
41202;BME280;26936;50.524;8.684;2023-04-05T03:05:46;100058.66;;;-1.29;96.81
41202;BME280;26936;50.524;8.684;2023-04-05T03:08:15;100058.19;;;-1.31;97.57
41202;BME280;26936;50.524;8.684;2023-04-05T03:10:47;100059.28;;;-1.36;97.74
41202;BME280;26936;50.524;8.684;2023-04-05T03:13:13;100057.25;;;-1.39;97.69
41202;BME280;26936;50.524;8.684;2023-04-05T03:15:39;100056.06;;;-1.38;97.54
41202;BME280;26936;50.524;8.684;2023-04-05T03:18:04;100051.53;;;-1.46;98.56
41202;BME280;26936;50.524;8.684;2023-04-05T03:20:30;100050.72;;;-1.47;98.68
41202;BME280;26936;50.524;8.684;2023-04-05T03:22:55;100049.13;;;-1.48;98.35
41202;BME280;26936;50.524;8.684;2023-04-05T03:25:20;100048.22;;;-1.52;98.56
41202;BME280;26936;50.524;8.684;2023-04-05T03:27:45;100053.31;;;-1.54;99.49
41202;BME280;26936;50.524;8.684;2023-04-05T03:30:11;100041.72;;;-1.44;98.93
41202;BME280;26936;50.524;8.684;2023-04-05T03:32:36;100049.13;;;-1.48;98.70
41202;BME280;26936;50.524;8.684;2023-04-05T03:35:01;100040.84;;;-1.48;98.12
41202;BME280;26936;50.524;8.684;2023-04-05T03:37:27;100045.56;;;-1.48;98.36
41202;BME280;26936;50.524;8.684;2023-04-05T03:39:52;100046.63;;;-1.53;98.81
41202;BME280;26936;50.524;8.684;2023-04-05T03:42:17;100055.28;;;-1.54;99.01
41202;BME280;26936;50.524;8.684;2023-04-05T03:44:43;100042.00;;;-1.64;99.63
41202;BME280;26936;50.524;8.684;2023-04-05T03:47:08;100041.19;;;-1.65;99.67
41202;BME280;26936;50.524;8.684;2023-04-05T03:49:33;100033.69;;;-1.64;99.26
41202;BME280;26936;50.524;8.684;2023-04-05T03:51:58;100033.78;;;-1.61;99.67
41202;BME280;26936;50.524;8.684;2023-04-05T03:54:24;100035.66;;;-1.65;100.00
41202;BME280;26936;50.524;8.684;2023-04-05T03:56:49;100026.59;;;-1.65;99.83
41202;BME280;26936;50.524;8.684;2023-04-05T03:59:14;100034.06;;;-1.66;100.00
41202;BME280;26936;50.524;8.684;2023-04-05T04:01:39;100033.44;;;-1.75;100.00
41202;BME280;26936;50.524;8.684;2023-04-05T04:04:05;100030.59;;;-1.78;100.00
41202;BME280;26936;50.524;8.684;2023-04-05T04:06:30;100029.41;;;-1.77;100.00
41202;BME280;26936;50.524;8.684;2023-04-05T04:08:55;100031.81;;;-1.76;100.00
41202;BME280;26936;50.524;8.684;2023-04-05T04:11:21;100032.91;;;-1.80;100.00
41202;BME280;26936;50.524;8.684;2023-04-05T04:13:46;100039.22;;;-1.80;100.00
41202;BME280;26936;50.524;8.684;2023-04-05T04:16:12;100041.78;;;-1.87;100.00
41202;BME280;26936;50.524;8.684;2023-04-05T04:18:37;100035.47;;;-1.87;100.00
41202;BME280;26936;50.524;8.684;2023-04-05T04:21:02;100043.38;;;-1.86;100.00
41202;BME280;26936;50.524;8.684;2023-04-05T04:23:31;100048.28;;;-1.95;100.00
41202;BME280;26936;50.524;8.684;2023-04-05T04:25:58;100045.28;;;-1.90;100.00
41202;BME280;26936;50.524;8.684;2023-04-05T04:28:26;100045.72;;;-1.88;100.00
41202;BME280;26936;50.524;8.684;2023-04-05T04:30:52;100045.63;;;-1.91;100.00
41202;BME280;26936;50.524;8.684;2023-04-05T04:33:17;100042.41;;;-1.93;100.00
41202;BME280;26936;50.524;8.684;2023-04-05T04:35:44;100037.59;;;-1.96;100.00
41202;BME280;26936;50.524;8.684;2023-04-05T04:38:10;100037.16;;;-1.98;100.00
41202;BME280;26936;50.524;8.684;2023-04-05T04:40:42;100034.75;;;-2.00;100.00
41202;BME280;26936;50.524;8.684;2023-04-05T04:43:12;100046.84;;;-2.04;100.00
41202;BME280;26936;50.524;8.684;2023-04-05T04:45:39;100049.25;;;-2.03;100.00
41202;BME280;26936;50.524;8.684;2023-04-05T04:48:05;100047.88;;;-2.09;100.00
41202;BME280;26936;50.524;8.684;2023-04-05T04:50:31;100044.69;;;-2.11;100.00
41202;BME280;26936;50.524;8.684;2023-04-05T04:53:00;100040.06;;;-2.07;100.00
41202;BME280;26936;50.524;8.684;2023-04-05T04:55:26;100047.34;;;-2.14;100.00
41202;BME280;26936;50.524;8.684;2023-04-05T04:57:52;100051.56;;;-2.05;100.00
41202;BME280;26936;50.524;8.684;2023-04-05T05:00:18;100043.28;;;-2.05;100.00
41202;BME280;26936;50.524;8.684;2023-04-05T05:02:44;100044.00;;;-2.08;100.00
41202;BME280;26936;50.524;8.684;2023-04-05T05:05:10;100040.78;;;-2.10;100.00
41202;BME280;26936;50.524;8.684;2023-04-05T05:07:37;100045.59;;;-2.07;100.00
41202;BME280;26936;50.524;8.684;2023-04-05T05:10:04;100048.25;;;-2.10;100.00
41202;BME280;26936;50.524;8.684;2023-04-05T05:12:30;100035.72;;;-2.08;100.00
41202;BME280;26936;50.524;8.684;2023-04-05T05:14:55;100042.31;;;-1.97;100.00
41202;BME280;26936;50.524;8.684;2023-04-05T05:17:21;100039.56;;;-1.97;100.00
41202;BME280;26936;50.524;8.684;2023-04-05T05:19:47;100038.75;;;-1.97;100.00
41202;BME280;26936;50.524;8.684;2023-04-05T05:22:12;100044.91;;;-1.88;100.00
41202;BME280;26936;50.524;8.684;2023-04-05T05:24:37;100051.84;;;-1.94;100.00
41202;BME280;26936;50.524;8.684;2023-04-05T05:27:03;100050.53;;;-1.85;100.00
41202;BME280;26936;50.524;8.684;2023-04-05T05:29:28;100048.13;;;-1.86;100.00
41202;BME280;26936;50.524;8.684;2023-04-05T05:31:54;100047.78;;;-1.69;100.00
41202;BME280;26936;50.524;8.684;2023-04-05T05:34:19;100051.59;;;-1.58;100.00
41202;BME280;26936;50.524;8.684;2023-04-05T05:36:45;100049.19;;;-1.28;100.00
41202;BME280;26936;50.524;8.684;2023-04-05T05:39:10;100045.06;;;-1.03;99.43
41202;BME280;26936;50.524;8.684;2023-04-05T05:41:36;100044.63;;;-0.52;98.86
41202;BME280;26936;50.524;8.684;2023-04-05T05:44:01;100045.78;;;0.05;96.12
41202;BME280;26936;50.524;8.684;2023-04-05T05:46:26;100054.03;;;0.65;91.75
41202;BME280;26936;50.524;8.684;2023-04-05T05:48:52;100055.31;;;1.23;88.88
41202;BME280;26936;50.524;8.684;2023-04-05T05:51:17;100055.28;;;1.79;85.21
41202;BME280;26936;50.524;8.684;2023-04-05T05:53:43;100047.56;;;2.35;83.00
41202;BME280;26936;50.524;8.684;2023-04-05T05:56:09;100048.88;;;2.92;79.56
41202;BME280;26936;50.524;8.684;2023-04-05T05:58:35;100042.09;;;3.47;76.63
41202;BME280;26936;50.524;8.684;2023-04-05T06:01:01;100040.69;;;3.88;74.84
41202;BME280;26936;50.524;8.684;2023-04-05T06:03:28;100041.22;;;4.26;73.22
41202;BME280;26936;50.524;8.684;2023-04-05T06:05:56;100047.66;;;4.75;71.70
41202;BME280;26936;50.524;8.684;2023-04-05T06:08:23;100047.66;;;5.17;69.60
41202;BME280;26936;50.524;8.684;2023-04-05T06:10:49;100044.75;;;5.63;67.88
41202;BME280;26936;50.524;8.684;2023-04-05T06:13:15;100038.72;;;5.89;65.70
41202;BME280;26936;50.524;8.684;2023-04-05T06:15:41;100035.81;;;6.14;64.26
41202;BME280;26936;50.524;8.684;2023-04-05T06:18:07;100042.38;;;6.51;63.86
41202;BME280;26936;50.524;8.684;2023-04-05T06:20:32;100041.94;;;7.11;61.86
41202;BME280;26936;50.524;8.684;2023-04-05T06:22:57;100042.03;;;7.41;60.67
41202;BME280;26936;50.524;8.684;2023-04-05T06:25:22;100042.00;;;7.78;60.43
41202;BME280;26936;50.524;8.684;2023-04-05T06:27:47;100041.97;;;8.15;58.60
41202;BME280;26936;50.524;8.684;2023-04-05T06:30:13;100047.88;;;8.55;56.96
41202;BME280;26936;50.524;8.684;2023-04-05T06:32:38;100046.59;;;9.09;55.09
41202;BME280;26936;50.524;8.684;2023-04-05T06:35:04;100039.19;;;9.41;53.65
41202;BME280;26936;50.524;8.684;2023-04-05T06:37:30;100039.06;;;9.91;52.70
41202;BME280;26936;50.524;8.684;2023-04-05T06:39:57;100032.94;;;10.16;51.28
41202;BME280;26936;50.524;8.684;2023-04-05T06:42:22;100035.81;;;10.12;50.67
41202;BME280;26936;50.524;8.684;2023-04-05T06:44:47;100034.72;;;10.06;50.18
41202;BME280;26936;50.524;8.684;2023-04-05T06:47:13;100037.09;;;10.47;49.63
41202;BME280;26936;50.524;8.684;2023-04-05T06:49:38;100033.13;;;10.96;49.06
41202;BME280;26936;50.524;8.684;2023-04-05T06:52:04;100034.25;;;11.15;48.40
41202;BME280;26936;50.524;8.684;2023-04-05T06:54:36;100025.56;;;11.54;47.01
41202;BME280;26936;50.524;8.684;2023-04-05T06:57:01;100030.72;;;11.11;47.25
41202;BME280;26936;50.524;8.684;2023-04-05T06:59:28;100023.69;;;11.79;46.40
41202;BME280;26936;50.524;8.684;2023-04-05T07:01:54;100030.56;;;12.07;45.21
41202;BME280;26936;50.524;8.684;2023-04-05T07:04:20;100028.88;;;12.22;44.98
41202;BME280;26936;50.524;8.684;2023-04-05T07:06:45;100021.72;;;12.46;44.11
41202;BME280;26936;50.524;8.684;2023-04-05T07:09:10;100024.84;;;12.36;44.59
41202;BME280;26936;50.524;8.684;2023-04-05T07:11:36;100028.75;;;12.13;45.02
41202;BME280;26936;50.524;8.684;2023-04-05T07:14:02;100020.56;;;12.02;44.62
41202;BME280;26936;50.524;8.684;2023-04-05T07:16:28;100018.84;;;12.33;44.46
41202;BME280;26936;50.524;8.684;2023-04-05T07:18:55;100016.47;;;12.32;42.99
41202;BME280;26936;50.524;8.684;2023-04-05T07:21:20;100022.06;;;12.61;42.67
41202;BME280;26936;50.524;8.684;2023-04-05T07:23:46;100020.03;;;12.74;42.54
41202;BME280;26936;50.524;8.684;2023-04-05T07:26:11;100011.75;;;12.79;42.19
41202;BME280;26936;50.524;8.684;2023-04-05T07:28:36;100016.84;;;12.97;42.60
41202;BME280;26936;50.524;8.684;2023-04-05T07:31:03;100012.63;;;13.39;41.30
41202;BME280;26936;50.524;8.684;2023-04-05T07:33:28;100008.78;;;13.89;40.58
41202;BME280;26936;50.524;8.684;2023-04-05T07:35:54;100011.31;;;13.87;40.40
41202;BME280;26936;50.524;8.684;2023-04-05T07:38:20;100010.22;;;14.15;40.02
41202;BME280;26936;50.524;8.684;2023-04-05T07:40:49;100018.19;;;14.50;39.37
41202;BME280;26936;50.524;8.684;2023-04-05T07:43:15;100011.13;;;14.94;37.45
41202;BME280;26936;50.524;8.684;2023-04-05T07:45:41;100015.72;;;15.01;37.64
41202;BME280;26936;50.524;8.684;2023-04-05T07:48:06;100015.91;;;14.98;37.21
41202;BME280;26936;50.524;8.684;2023-04-05T07:50:33;100009.31;;;15.10;37.76
41202;BME280;26936;50.524;8.684;2023-04-05T07:52:58;100002.72;;;15.31;36.86
41202;BME280;26936;50.524;8.684;2023-04-05T07:55:24;100015.50;;;15.35;37.12
41202;BME280;26936;50.524;8.684;2023-04-05T07:57:51;100006.13;;;16.01;36.06
41202;BME280;26936;50.524;8.684;2023-04-05T08:00:18;100005.75;;;15.36;35.63
41202;BME280;26936;50.524;8.684;2023-04-05T08:02:43;100002.81;;;16.03;36.01
41202;BME280;26936;50.524;8.684;2023-04-05T08:05:08;100002.16;;;16.08;36.26
41202;BME280;26936;50.524;8.684;2023-04-05T08:07:34;100005.47;;;16.06;35.60
41202;BME280;26936;50.524;8.684;2023-04-05T08:09:59;100002.56;;;16.61;33.86
41202;BME280;26936;50.524;8.684;2023-04-05T08:12:25;100007.16;;;16.91;33.49
41202;BME280;26936;50.524;8.684;2023-04-05T08:14:51;99999.91;;;16.30;33.95
41202;BME280;26936;50.524;8.684;2023-04-05T08:17:16;100002.25;;;16.41;33.89
41202;BME280;26936;50.524;8.684;2023-04-05T08:19:42;99993.56;;;16.95;32.62
41202;BME280;26936;50.524;8.684;2023-04-05T08:22:07;99988.81;;;17.48;31.81
41202;BME280;26936;50.524;8.684;2023-04-05T08:24:32;99983.66;;;17.37;30.35
41202;BME280;26936;50.524;8.684;2023-04-05T08:26:58;99984.41;;;17.85;30.19
41202;BME280;26936;50.524;8.684;2023-04-05T08:29:23;99987.91;;;17.66;29.06
41202;BME280;26936;50.524;8.684;2023-04-05T08:31:48;99985.09;;;17.95;29.28
41202;BME280;26936;50.524;8.684;2023-04-05T08:34:13;99984.59;;;18.49;29.64
41202;BME280;26936;50.524;8.684;2023-04-05T08:36:39;99980.25;;;18.53;29.34
41202;BME280;26936;50.524;8.684;2023-04-05T08:39:04;99978.19;;;18.68;28.22
41202;BME280;26936;50.524;8.684;2023-04-05T08:41:35;99965.28;;;18.87;28.43
41202;BME280;26936;50.524;8.684;2023-04-05T08:44:02;99971.50;;;18.57;27.80
41202;BME280;26936;50.524;8.684;2023-04-05T08:46:31;99969.94;;;17.74;26.53
41202;BME280;26936;50.524;8.684;2023-04-05T08:48:57;99969.25;;;18.17;26.62
41202;BME280;26936;50.524;8.684;2023-04-05T08:51:23;99974.75;;;18.64;27.38
41202;BME280;26936;50.524;8.684;2023-04-05T08:53:50;99976.38;;;17.98;27.70
41202;BME280;26936;50.524;8.684;2023-04-05T08:56:26;99971.97;;;18.26;28.80
41202;BME280;26936;50.524;8.684;2023-04-05T08:59:15;99970.69;;;18.27;27.73
41202;BME280;26936;50.524;8.684;2023-04-05T09:01:42;99972.00;;;18.55;27.54
41202;BME280;26936;50.524;8.684;2023-04-05T09:04:21;99969.50;;;18.34;27.20
41202;BME280;26936;50.524;8.684;2023-04-05T09:06:49;99965.56;;;17.88;28.22
41202;BME280;26936;50.524;8.684;2023-04-05T09:09:15;99968.63;;;18.28;27.26
41202;BME280;26936;50.524;8.684;2023-04-05T09:11:42;99953.56;;;17.98;28.02
41202;BME280;26936;50.524;8.684;2023-04-05T09:14:07;99955.31;;;17.67;27.92
41202;BME280;26936;50.524;8.684;2023-04-05T09:16:36;99959.69;;;18.20;27.79
41202;BME280;26936;50.524;8.684;2023-04-05T09:19:02;99962.97;;;17.75;28.39
41202;BME280;26936;50.524;8.684;2023-04-05T09:21:27;99964.97;;;18.13;28.69
41202;BME280;26936;50.524;8.684;2023-04-05T09:23:54;99958.53;;;16.80;30.16
41202;BME280;26936;50.524;8.684;2023-04-05T09:26:23;99956.41;;;17.84;29.41
41202;BME280;26936;50.524;8.684;2023-04-05T09:28:49;99955.44;;;18.01;28.46
41202;BME280;26936;50.524;8.684;2023-04-05T09:31:34;99952.50;;;18.25;29.12
41202;BME280;26936;50.524;8.684;2023-04-05T09:34:04;99954.19;;;18.17;28.42
41202;BME280;26936;50.524;8.684;2023-04-05T09:36:32;99952.91;;;18.32;28.62
41202;BME280;26936;50.524;8.684;2023-04-05T09:39:08;99946.25;;;18.50;28.62
41202;BME280;26936;50.524;8.684;2023-04-05T09:41:34;99946.09;;;17.72;27.34
41202;BME280;26936;50.524;8.684;2023-04-05T09:44:00;99946.38;;;17.88;27.36
41202;BME280;26936;50.524;8.684;2023-04-05T09:46:30;99941.69;;;18.72;27.40
41202;BME280;26936;50.524;8.684;2023-04-05T09:48:56;99943.34;;;17.92;27.94
41202;BME280;26936;50.524;8.684;2023-04-05T09:51:21;99948.69;;;15.88;28.31
41202;BME280;26936;50.524;8.684;2023-04-05T09:56:25;99934.78;;;17.39;29.24
41202;BME280;26936;50.524;8.684;2023-04-05T09:58:50;99941.22;;;16.92;28.00
41202;BME280;26936;50.524;8.684;2023-04-05T10:01:16;99934.09;;;17.20;27.46
41202;BME280;26936;50.524;8.684;2023-04-05T10:03:48;99940.53;;;17.53;26.69
41202;BME280;26936;50.524;8.684;2023-04-05T10:06:17;99938.00;;;16.34;28.43
41202;BME280;26936;50.524;8.684;2023-04-05T10:08:45;99939.63;;;14.99;29.57
41202;BME280;26936;50.524;8.684;2023-04-05T10:11:11;99943.34;;;14.78;30.11
41202;BME280;26936;50.524;8.684;2023-04-05T10:13:38;99928.59;;;16.01;28.87
41202;BME280;26936;50.524;8.684;2023-04-05T10:16:05;99930.72;;;15.82;29.74
41202;BME280;26936;50.524;8.684;2023-04-05T10:18:40;99936.47;;;16.15;28.82
41202;BME280;26936;50.524;8.684;2023-04-05T10:21:10;99941.22;;;14.52;29.90
41202;BME280;26936;50.524;8.684;2023-04-05T10:23:36;99939.34;;;15.25;30.26
41202;BME280;26936;50.524;8.684;2023-04-05T10:26:07;99927.66;;;15.05;29.09
41202;BME280;26936;50.524;8.684;2023-04-05T10:28:42;99932.84;;;15.06;30.49
41202;BME280;26936;50.524;8.684;2023-04-05T10:31:16;99918.56;;;15.73;31.04
41202;BME280;26936;50.524;8.684;2023-04-05T10:33:55;99926.94;;;15.67;32.40
41202;BME280;26936;50.524;8.684;2023-04-05T10:41:16;99909.44;;;16.94;29.68
41202;BME280;26936;50.524;8.684;2023-04-05T10:43:42;99915.44;;;16.96;29.54
41202;BME280;26936;50.524;8.684;2023-04-05T10:46:09;99907.47;;;17.09;29.38
41202;BME280;26936;50.524;8.684;2023-04-05T10:48:49;99898.25;;;17.14;29.20
41202;BME280;26936;50.524;8.684;2023-04-05T10:51:19;99901.34;;;17.48;28.71
41202;BME280;26936;50.524;8.684;2023-04-05T10:53:45;99907.13;;;16.09;27.51
41202;BME280;26936;50.524;8.684;2023-04-05T10:56:11;99894.03;;;16.53;28.97
41202;BME280;26936;50.524;8.684;2023-04-05T10:58:37;99888.00;;;16.60;29.37
41202;BME280;26936;50.524;8.684;2023-04-05T11:01:05;99884.69;;;16.11;29.35
41202;BME280;26936;50.524;8.684;2023-04-05T11:06:30;99889.34;;;15.81;27.37
41202;BME280;26936;50.524;8.684;2023-04-05T11:09:09;99889.06;;;15.07;29.65
41202;BME280;26936;50.524;8.684;2023-04-05T11:11:39;99895.75;;;14.64;30.84
41202;BME280;26936;50.524;8.684;2023-04-05T11:14:35;99889.00;;;14.80;29.33
41202;BME280;26936;50.524;8.684;2023-04-05T11:17:02;99890.00;;;14.46;30.87
41202;BME280;26936;50.524;8.684;2023-04-05T11:22:09;99885.41;;;15.07;30.16
41202;BME280;26936;50.524;8.684;2023-04-05T11:24:55;99892.66;;;14.98;30.40
41202;BME280;26936;50.524;8.684;2023-04-05T11:27:32;99878.47;;;15.08;30.90
41202;BME280;26936;50.524;8.684;2023-04-05T11:29:59;99885.28;;;15.37;29.40
41202;BME280;26936;50.524;8.684;2023-04-05T11:32:44;99876.94;;;15.61;29.95
41202;BME280;26936;50.524;8.684;2023-04-05T11:35:17;99877.09;;;15.57;32.23
41202;BME280;26936;50.524;8.684;2023-04-05T11:40:32;99867.72;;;14.66;30.49
41202;BME280;26936;50.524;8.684;2023-04-05T11:43:05;99864.31;;;15.26;31.11
41202;BME280;26936;50.524;8.684;2023-04-05T11:45:32;99864.47;;;15.04;29.98
41202;BME280;26936;50.524;8.684;2023-04-05T11:48:05;99854.84;;;14.92;29.80
41202;BME280;26936;50.524;8.684;2023-04-05T11:50:31;99857.72;;;14.04;29.67
41202;BME280;26936;50.524;8.684;2023-04-05T11:53:13;99851.34;;;13.39;30.73
41202;BME280;26936;50.524;8.684;2023-04-05T11:55:40;99842.88;;;13.70;32.38
41202;BME280;26936;50.524;8.684;2023-04-05T11:58:12;99846.97;;;13.04;31.37
41202;BME280;26936;50.524;8.684;2023-04-05T12:00:39;99850.47;;;13.08;31.69
41202;BME280;26936;50.524;8.684;2023-04-05T12:03:04;99853.91;;;12.78;31.72
41202;BME280;26936;50.524;8.684;2023-04-05T12:05:50;99829.97;;;12.82;31.92
41202;BME280;26936;50.524;8.684;2023-04-05T12:08:17;99839.22;;;12.83;32.42
41202;BME280;26936;50.524;8.684;2023-04-05T12:10:43;99835.16;;;12.84;31.99
41202;BME280;26936;50.524;8.684;2023-04-05T12:13:09;99837.59;;;12.60;32.16
41202;BME280;26936;50.524;8.684;2023-04-05T12:15:38;99835.78;;;12.54;34.93
41202;BME280;26936;50.524;8.684;2023-04-05T12:18:13;99833.91;;;12.38;32.40
41202;BME280;26936;50.524;8.684;2023-04-05T12:20:39;99829.28;;;12.32;32.11
41202;BME280;26936;50.524;8.684;2023-04-05T12:23:04;99824.78;;;11.96;33.25
41202;BME280;26936;50.524;8.684;2023-04-05T12:25:30;99829.16;;;11.19;33.48
41202;BME280;26936;50.524;8.684;2023-04-05T12:27:55;99822.63;;;11.34;33.10
41202;BME280;26936;50.524;8.684;2023-04-05T12:30:22;99824.59;;;11.09;33.71
41202;BME280;26936;50.524;8.684;2023-04-05T12:32:52;99819.84;;;11.06;34.47
41202;BME280;26936;50.524;8.684;2023-04-05T12:35:23;99825.88;;;10.91;34.09
41202;BME280;26936;50.524;8.684;2023-04-05T12:37:51;99817.63;;;10.84;34.37
41202;BME280;26936;50.524;8.684;2023-04-05T12:40:23;99817.22;;;10.70;35.53
41202;BME280;26936;50.524;8.684;2023-04-05T12:42:48;99812.84;;;10.98;34.53
41202;BME280;26936;50.524;8.684;2023-04-05T12:45:14;99820.88;;;10.83;35.02
41202;BME280;26936;50.524;8.684;2023-04-05T12:50:16;99810.53;;;10.64;35.14
41202;BME280;26936;50.524;8.684;2023-04-05T12:55:17;99806.03;;;9.86;36.98
41202;BME280;26936;50.524;8.684;2023-04-05T12:57:43;99805.50;;;9.75;36.68
41202;BME280;26936;50.524;8.684;2023-04-05T13:00:10;99799.47;;;9.93;35.71
41202;BME280;26936;50.524;8.684;2023-04-05T13:02:35;99795.34;;;10.13;37.83
41202;BME280;26936;50.524;8.684;2023-04-05T13:05:01;99792.63;;;10.26;39.29
41202;BME280;26936;50.524;8.684;2023-04-05T13:07:26;99792.31;;;10.52;37.55
41202;BME280;26936;50.524;8.684;2023-04-05T13:09:51;99801.84;;;10.87;39.25
41202;BME280;26936;50.524;8.684;2023-04-05T13:12:16;99790.47;;;10.90;36.81
41202;BME280;26936;50.524;8.684;2023-04-05T13:14:42;99786.94;;;11.03;38.84
41202;BME280;26936;50.524;8.684;2023-04-05T13:17:07;99770.50;;;11.14;41.73
41202;BME280;26936;50.524;8.684;2023-04-05T13:19:32;99772.22;;;11.24;41.02
41202;BME280;26936;50.524;8.684;2023-04-05T13:21:57;99777.97;;;11.33;40.75
41202;BME280;26936;50.524;8.684;2023-04-05T13:24:23;99773.13;;;11.33;39.57
41202;BME280;26936;50.524;8.684;2023-04-05T13:26:48;99780.94;;;11.42;38.91